sensor_id;sensor_type;location;lat;lon;timestamp;P1;durP1;ratioP1;P2;durP2;ratioP2
28353;SDS011;15603;50.878;8.036;2023-08-07T00:02:26;0.57;;;0.20;;
28353;SDS011;15603;50.878;8.036;2023-08-07T00:04:53;2.15;;;0.10;;
28353;SDS011;15603;50.878;8.036;2023-08-07T00:07:21;0.38;;;0.17;;
28353;SDS011;15603;50.878;8.036;2023-08-07T00:09:48;1.23;;;0.20;;
28353;SDS011;15603;50.878;8.036;2023-08-07T00:12:15;0.30;;;0.20;;
28353;SDS011;15603;50.878;8.036;2023-08-07T00:14:42;0.10;;;0.10;;
28353;SDS011;15603;50.878;8.036;2023-08-07T00:17:09;1.02;;;0.30;;
28353;SDS011;15603;50.878;8.036;2023-08-07T00:19:36;0.45;;;0.20;;
28353;SDS011;15603;50.878;8.036;2023-08-07T00:22:03;3.10;;;0.90;;
28353;SDS011;15603;50.878;8.036;2023-08-07T00:24:30;2.58;;;0.40;;
28353;SDS011;15603;50.878;8.036;2023-08-07T00:26:58;0.75;;;0.30;;
28353;SDS011;15603;50.878;8.036;2023-08-07T00:29:25;3.17;;;0.47;;
28353;SDS011;15603;50.878;8.036;2023-08-07T00:31:52;3.53;;;0.38;;
28353;SDS011;15603;50.878;8.036;2023-08-07T00:34:19;2.13;;;0.38;;
28353;SDS011;15603;50.878;8.036;2023-08-07T00:36:46;2.05;;;0.50;;
28353;SDS011;15603;50.878;8.036;2023-08-07T00:39:13;2.83;;;0.47;;
28353;SDS011;15603;50.878;8.036;2023-08-07T00:41:40;5.05;;;0.30;;
28353;SDS011;15603;50.878;8.036;2023-08-07T00:44:08;1.38;;;0.77;;
28353;SDS011;15603;50.878;8.036;2023-08-07T00:46:35;1.10;;;0.40;;
28353;SDS011;15603;50.878;8.036;2023-08-07T00:49:03;1.45;;;0.30;;
28353;SDS011;15603;50.878;8.036;2023-08-07T00:51:30;2.72;;;0.40;;
28353;SDS011;15603;50.878;8.036;2023-08-07T00:53:58;0.75;;;0.30;;
28353;SDS011;15603;50.878;8.036;2023-08-07T00:56:26;2.33;;;0.65;;
28353;SDS011;15603;50.878;8.036;2023-08-07T00:58:53;1.15;;;0.40;;
28353;SDS011;15603;50.878;8.036;2023-08-07T01:01:20;2.42;;;0.43;;
28353;SDS011;15603;50.878;8.036;2023-08-07T01:03:48;1.08;;;0.50;;
28353;SDS011;15603;50.878;8.036;2023-08-07T01:06:15;0.28;;;0.28;;
28353;SDS011;15603;50.878;8.036;2023-08-07T01:08:43;2.75;;;0.32;;
28353;SDS011;15603;50.878;8.036;2023-08-07T01:11:33;0.45;;;0.30;;
28353;SDS011;15603;50.878;8.036;2023-08-07T01:19:36;2.75;;;0.45;;
28353;SDS011;15603;50.878;8.036;2023-08-07T01:22:11;3.17;;;0.40;;
28353;SDS011;15603;50.878;8.036;2023-08-07T01:24:46;0.95;;;0.20;;
28353;SDS011;15603;50.878;8.036;2023-08-07T01:35:14;0.40;;;0.20;;
28353;SDS011;15603;50.878;8.036;2023-08-07T01:37:43;0.45;;;0.13;;
28353;SDS011;15603;50.878;8.036;2023-08-07T01:40:12;0.30;;;0.30;;
28353;SDS011;15603;50.878;8.036;2023-08-07T01:42:40;4.68;;;0.40;;
28353;SDS011;15603;50.878;8.036;2023-08-07T01:45:08;0.30;;;0.20;;
28353;SDS011;15603;50.878;8.036;2023-08-07T01:47:35;0.50;;;0.25;;
28353;SDS011;15603;50.878;8.036;2023-08-07T01:50:02;0.20;;;0.20;;
28353;SDS011;15603;50.878;8.036;2023-08-07T01:52:30;0.30;;;0.13;;
28353;SDS011;15603;50.878;8.036;2023-08-07T01:54:57;5.57;;;0.28;;
28353;SDS011;15603;50.878;8.036;2023-08-07T01:57:24;1.80;;;0.20;;
28353;SDS011;15603;50.878;8.036;2023-08-07T01:59:52;0.55;;;0.20;;
28353;SDS011;15603;50.878;8.036;2023-08-07T02:02:19;0.30;;;0.20;;
28353;SDS011;15603;50.878;8.036;2023-08-07T02:04:46;0.63;;;0.13;;
28353;SDS011;15603;50.878;8.036;2023-08-07T02:07:14;1.27;;;0.15;;
28353;SDS011;15603;50.878;8.036;2023-08-07T02:09:41;0.38;;;0.30;;
28353;SDS011;15603;50.878;8.036;2023-08-07T02:12:08;0.10;;;0.10;;
28353;SDS011;15603;50.878;8.036;2023-08-07T02:14:35;1.02;;;0.20;;
28353;SDS011;15603;50.878;8.036;2023-08-07T02:17:02;0.98;;;0.20;;
28353;SDS011;15603;50.878;8.036;2023-08-07T02:19:29;0.63;;;0.20;;
28353;SDS011;15603;50.878;8.036;2023-08-07T02:21:58;0.68;;;0.32;;
28353;SDS011;15603;50.878;8.036;2023-08-07T02:24:25;0.32;;;0.10;;
28353;SDS011;15603;50.878;8.036;2023-08-07T02:26:52;0.95;;;0.20;;
28353;SDS011;15603;50.878;8.036;2023-08-07T02:29:20;0.80;;;0.00;;
28353;SDS011;15603;50.878;8.036;2023-08-07T02:31:47;0.10;;;0.10;;
28353;SDS011;15603;50.878;8.036;2023-08-07T02:34:14;1.48;;;0.10;;
28353;SDS011;15603;50.878;8.036;2023-08-07T02:36:41;6.45;;;0.13;;
28353;SDS011;15603;50.878;8.036;2023-08-07T02:39:08;0.17;;;0.10;;
28353;SDS011;15603;50.878;8.036;2023-08-07T02:41:35;0.73;;;0.10;;
28353;SDS011;15603;50.878;8.036;2023-08-07T02:44:03;0.10;;;0.10;;
28353;SDS011;15603;50.878;8.036;2023-08-07T02:46:30;0.10;;;0.10;;
28353;SDS011;15603;50.878;8.036;2023-08-07T02:48:57;0.10;;;0.10;;
28353;SDS011;15603;50.878;8.036;2023-08-07T02:51:24;0.10;;;0.10;;
28353;SDS011;15603;50.878;8.036;2023-08-07T02:53:51;0.10;;;0.10;;
28353;SDS011;15603;50.878;8.036;2023-08-07T02:56:18;0.32;;;0.10;;
28353;SDS011;15603;50.878;8.036;2023-08-07T02:58:45;0.20;;;0.10;;
28353;SDS011;15603;50.878;8.036;2023-08-07T03:01:13;0.10;;;0.10;;
28353;SDS011;15603;50.878;8.036;2023-08-07T03:03:40;0.20;;;0.10;;
28353;SDS011;15603;50.878;8.036;2023-08-07T03:06:07;0.10;;;0.10;;
28353;SDS011;15603;50.878;8.036;2023-08-07T03:08:34;0.20;;;0.17;;
28353;SDS011;15603;50.878;8.036;2023-08-07T03:11:01;0.35;;;0.10;;
28353;SDS011;15603;50.878;8.036;2023-08-07T03:13:28;0.20;;;0.20;;
28353;SDS011;15603;50.878;8.036;2023-08-07T03:15:59;0.85;;;0.30;;
28353;SDS011;15603;50.878;8.036;2023-08-07T03:18:27;0.10;;;0.10;;
28353;SDS011;15603;50.878;8.036;2023-08-07T03:20:55;0.10;;;0.10;;
28353;SDS011;15603;50.878;8.036;2023-08-07T03:23:23;3.20;;;0.30;;
28353;SDS011;15603;50.878;8.036;2023-08-07T03:28:49;0.13;;;0.10;;
28353;SDS011;15603;50.878;8.036;2023-08-07T03:31:17;0.38;;;0.10;;
28353;SDS011;15603;50.878;8.036;2023-08-07T03:33:45;2.15;;;0.38;;
28353;SDS011;15603;50.878;8.036;2023-08-07T03:36:13;0.52;;;0.30;;
28353;SDS011;15603;50.878;8.036;2023-08-07T03:38:41;1.90;;;0.20;;
28353;SDS011;15603;50.878;8.036;2023-08-07T03:41:08;0.20;;;0.20;;
28353;SDS011;15603;50.878;8.036;2023-08-07T03:43:37;1.45;;;0.35;;
28353;SDS011;15603;50.878;8.036;2023-08-07T03:46:04;1.15;;;0.20;;
28353;SDS011;15603;50.878;8.036;2023-08-07T03:48:32;0.57;;;0.28;;
28353;SDS011;15603;50.878;8.036;2023-08-07T03:51:02;1.25;;;0.20;;
28353;SDS011;15603;50.878;8.036;2023-08-07T03:53:40;0.77;;;0.25;;
28353;SDS011;15603;50.878;8.036;2023-08-07T03:56:07;0.30;;;0.22;;
28353;SDS011;15603;50.878;8.036;2023-08-07T03:58:35;12.43;;;0.50;;
28353;SDS011;15603;50.878;8.036;2023-08-07T04:01:03;0.52;;;0.25;;
28353;SDS011;15603;50.878;8.036;2023-08-07T04:03:30;0.35;;;0.28;;
28353;SDS011;15603;50.878;8.036;2023-08-07T04:05:59;0.20;;;0.20;;
28353;SDS011;15603;50.878;8.036;2023-08-07T04:08:28;2.92;;;0.20;;
28353;SDS011;15603;50.878;8.036;2023-08-07T04:11:02;0.63;;;0.15;;
28353;SDS011;15603;50.878;8.036;2023-08-07T04:13:33;2.53;;;0.30;;
28353;SDS011;15603;50.878;8.036;2023-08-07T04:16:01;0.70;;;0.30;;
28353;SDS011;15603;50.878;8.036;2023-08-07T04:18:31;0.57;;;0.22;;
28353;SDS011;15603;50.878;8.036;2023-08-07T04:21:00;0.30;;;0.20;;
28353;SDS011;15603;50.878;8.036;2023-08-07T04:23:27;0.40;;;0.20;;
28353;SDS011;15603;50.878;8.036;2023-08-07T04:25:54;0.55;;;0.13;;
28353;SDS011;15603;50.878;8.036;2023-08-07T04:28:23;0.98;;;0.20;;
28353;SDS011;15603;50.878;8.036;2023-08-07T04:30:51;2.10;;;0.22;;
28353;SDS011;15603;50.878;8.036;2023-08-07T04:33:21;0.75;;;0.10;;
28353;SDS011;15603;50.878;8.036;2023-08-07T04:35:48;0.73;;;0.30;;
28353;SDS011;15603;50.878;8.036;2023-08-07T04:38:16;0.20;;;0.20;;
28353;SDS011;15603;50.878;8.036;2023-08-07T04:40:44;2.95;;;0.20;;
28353;SDS011;15603;50.878;8.036;2023-08-07T04:43:15;0.40;;;0.38;;
28353;SDS011;15603;50.878;8.036;2023-08-07T04:45:43;1.58;;;0.30;;
28353;SDS011;15603;50.878;8.036;2023-08-07T04:48:12;0.50;;;0.30;;
28353;SDS011;15603;50.878;8.036;2023-08-07T04:50:40;4.97;;;0.40;;
28353;SDS011;15603;50.878;8.036;2023-08-07T04:53:07;0.30;;;0.20;;
28353;SDS011;15603;50.878;8.036;2023-08-07T04:55:35;1.45;;;0.13;;
28353;SDS011;15603;50.878;8.036;2023-08-07T04:58:02;0.15;;;0.10;;
28353;SDS011;15603;50.878;8.036;2023-08-07T05:00:29;0.22;;;0.22;;
28353;SDS011;15603;50.878;8.036;2023-08-07T05:02:57;0.75;;;0.10;;
28353;SDS011;15603;50.878;8.036;2023-08-07T05:05:24;2.88;;;0.38;;
28353;SDS011;15603;50.878;8.036;2023-08-07T05:07:54;1.30;;;0.30;;
28353;SDS011;15603;50.878;8.036;2023-08-07T05:10:21;1.25;;;0.52;;
28353;SDS011;15603;50.878;8.036;2023-08-07T05:12:48;2.85;;;0.70;;
28353;SDS011;15603;50.878;8.036;2023-08-07T05:15:22;1.50;;;0.63;;
28353;SDS011;15603;50.878;8.036;2023-08-07T05:17:50;1.15;;;0.43;;
28353;SDS011;15603;50.878;8.036;2023-08-07T05:20:17;1.75;;;0.50;;
28353;SDS011;15603;50.878;8.036;2023-08-07T05:22:44;1.92;;;0.70;;
28353;SDS011;15603;50.878;8.036;2023-08-07T05:25:12;0.43;;;0.40;;
28353;SDS011;15603;50.878;8.036;2023-08-07T05:27:42;0.68;;;0.40;;
28353;SDS011;15603;50.878;8.036;2023-08-07T05:30:10;4.13;;;0.73;;
28353;SDS011;15603;50.878;8.036;2023-08-07T05:32:38;0.77;;;0.50;;
28353;SDS011;15603;50.878;8.036;2023-08-07T05:35:06;0.60;;;0.50;;
28353;SDS011;15603;50.878;8.036;2023-08-07T05:37:34;6.10;;;0.82;;
28353;SDS011;15603;50.878;8.036;2023-08-07T05:40:02;3.30;;;0.70;;
28353;SDS011;15603;50.878;8.036;2023-08-07T05:42:29;6.18;;;0.63;;
28353;SDS011;15603;50.878;8.036;2023-08-07T05:44:57;1.73;;;0.90;;
28353;SDS011;15603;50.878;8.036;2023-08-07T05:47:25;0.75;;;0.65;;
28353;SDS011;15603;50.878;8.036;2023-08-07T05:49:52;2.63;;;0.80;;
28353;SDS011;15603;50.878;8.036;2023-08-07T05:52:19;3.03;;;0.50;;
28353;SDS011;15603;50.878;8.036;2023-08-07T05:54:47;0.73;;;0.60;;
28353;SDS011;15603;50.878;8.036;2023-08-07T05:57:14;4.68;;;0.60;;
28353;SDS011;15603;50.878;8.036;2023-08-07T05:59:41;8.63;;;0.68;;
28353;SDS011;15603;50.878;8.036;2023-08-07T06:02:10;3.35;;;0.43;;
28353;SDS011;15603;50.878;8.036;2023-08-07T06:04:38;0.98;;;0.55;;
28353;SDS011;15603;50.878;8.036;2023-08-07T06:07:05;0.82;;;0.55;;
28353;SDS011;15603;50.878;8.036;2023-08-07T06:09:33;2.13;;;0.63;;
28353;SDS011;15603;50.878;8.036;2023-08-07T06:12:02;2.05;;;0.75;;
28353;SDS011;15603;50.878;8.036;2023-08-07T06:14:29;3.00;;;0.63;;
28353;SDS011;15603;50.878;8.036;2023-08-07T06:16:56;1.17;;;0.65;;
28353;SDS011;15603;50.878;8.036;2023-08-07T06:19:25;2.90;;;0.70;;
28353;SDS011;15603;50.878;8.036;2023-08-07T06:21:59;3.88;;;0.45;;
28353;SDS011;15603;50.878;8.036;2023-08-07T06:24:27;2.03;;;0.70;;
28353;SDS011;15603;50.878;8.036;2023-08-07T06:26:55;1.58;;;0.52;;
28353;SDS011;15603;50.878;8.036;2023-08-07T06:29:22;4.38;;;0.70;;
28353;SDS011;15603;50.878;8.036;2023-08-07T06:31:49;1.10;;;0.57;;
28353;SDS011;15603;50.878;8.036;2023-08-07T06:34:16;1.83;;;0.70;;
28353;SDS011;15603;50.878;8.036;2023-08-07T06:36:43;0.90;;;0.70;;
28353;SDS011;15603;50.878;8.036;2023-08-07T06:39:10;3.83;;;0.70;;
28353;SDS011;15603;50.878;8.036;2023-08-07T06:41:37;2.15;;;1.05;;
28353;SDS011;15603;50.878;8.036;2023-08-07T06:44:05;2.40;;;1.00;;
28353;SDS011;15603;50.878;8.036;2023-08-07T06:46:32;1.67;;;0.75;;
28353;SDS011;15603;50.878;8.036;2023-08-07T06:48:59;2.80;;;0.93;;
28353;SDS011;15603;50.878;8.036;2023-08-07T06:51:27;4.90;;;0.80;;
28353;SDS011;15603;50.878;8.036;2023-08-07T06:53:54;2.33;;;1.08;;
28353;SDS011;15603;50.878;8.036;2023-08-07T06:56:21;3.72;;;1.20;;
28353;SDS011;15603;50.878;8.036;2023-08-07T06:58:48;3.10;;;1.17;;
28353;SDS011;15603;50.878;8.036;2023-08-07T07:01:15;2.17;;;0.95;;
28353;SDS011;15603;50.878;8.036;2023-08-07T07:03:42;1.75;;;1.20;;
28353;SDS011;15603;50.878;8.036;2023-08-07T07:06:12;2.83;;;1.20;;
28353;SDS011;15603;50.878;8.036;2023-08-07T07:08:40;3.40;;;1.52;;
28353;SDS011;15603;50.878;8.036;2023-08-07T07:11:07;1.35;;;1.23;;
28353;SDS011;15603;50.878;8.036;2023-08-07T07:13:35;15.10;;;2.17;;
28353;SDS011;15603;50.878;8.036;2023-08-07T07:16:03;1.60;;;1.42;;
28353;SDS011;15603;50.878;8.036;2023-08-07T07:18:30;3.40;;;1.60;;
28353;SDS011;15603;50.878;8.036;2023-08-07T07:20:57;2.97;;;1.30;;
28353;SDS011;15603;50.878;8.036;2023-08-07T07:23:25;2.85;;;1.20;;
28353;SDS011;15603;50.878;8.036;2023-08-07T07:25:53;1.38;;;0.93;;
28353;SDS011;15603;50.878;8.036;2023-08-07T07:28:20;2.78;;;1.48;;
28353;SDS011;15603;50.878;8.036;2023-08-07T07:30:48;1.95;;;1.25;;
28353;SDS011;15603;50.878;8.036;2023-08-07T07:33:16;2.08;;;1.27;;
28353;SDS011;15603;50.878;8.036;2023-08-07T07:35:43;2.92;;;0.70;;
28353;SDS011;15603;50.878;8.036;2023-08-07T07:38:10;1.67;;;0.82;;
28353;SDS011;15603;50.878;8.036;2023-08-07T07:40:38;4.40;;;0.90;;
28353;SDS011;15603;50.878;8.036;2023-08-07T07:43:05;1.98;;;0.60;;
28353;SDS011;15603;50.878;8.036;2023-08-07T07:45:32;3.50;;;0.82;;
28353;SDS011;15603;50.878;8.036;2023-08-07T07:48:02;1.75;;;0.60;;
28353;SDS011;15603;50.878;8.036;2023-08-07T07:50:30;1.30;;;0.60;;
28353;SDS011;15603;50.878;8.036;2023-08-07T07:52:58;1.35;;;0.70;;
28353;SDS011;15603;50.878;8.036;2023-08-07T07:55:25;1.05;;;0.95;;
28353;SDS011;15603;50.878;8.036;2023-08-07T07:57:53;2.45;;;0.60;;
28353;SDS011;15603;50.878;8.036;2023-08-07T08:00:21;1.45;;;0.65;;
28353;SDS011;15603;50.878;8.036;2023-08-07T08:02:53;0.43;;;0.40;;
28353;SDS011;15603;50.878;8.036;2023-08-07T08:05:20;0.57;;;0.40;;
28353;SDS011;15603;50.878;8.036;2023-08-07T08:07:47;2.70;;;0.68;;
28353;SDS011;15603;50.878;8.036;2023-08-07T08:10:15;0.52;;;0.50;;
28353;SDS011;15603;50.878;8.036;2023-08-07T08:12:42;0.55;;;0.50;;
28353;SDS011;15603;50.878;8.036;2023-08-07T08:15:09;1.02;;;0.50;;
28353;SDS011;15603;50.878;8.036;2023-08-07T08:17:37;0.63;;;0.30;;
28353;SDS011;15603;50.878;8.036;2023-08-07T08:20:04;1.65;;;0.60;;
28353;SDS011;15603;50.878;8.036;2023-08-07T08:22:32;0.68;;;0.50;;
28353;SDS011;15603;50.878;8.036;2023-08-07T08:25:00;1.65;;;0.60;;
28353;SDS011;15603;50.878;8.036;2023-08-07T08:27:27;1.08;;;0.40;;
28353;SDS011;15603;50.878;8.036;2023-08-07T08:29:54;2.45;;;0.40;;
28353;SDS011;15603;50.878;8.036;2023-08-07T08:32:21;1.15;;;0.55;;
28353;SDS011;15603;50.878;8.036;2023-08-07T08:34:48;2.40;;;0.60;;
28353;SDS011;15603;50.878;8.036;2023-08-07T08:37:17;0.77;;;0.45;;
28353;SDS011;15603;50.878;8.036;2023-08-07T08:39:44;1.15;;;0.40;;
28353;SDS011;15603;50.878;8.036;2023-08-07T08:42:11;1.08;;;0.60;;
28353;SDS011;15603;50.878;8.036;2023-08-07T08:44:41;1.40;;;0.50;;
28353;SDS011;15603;50.878;8.036;2023-08-07T08:47:15;0.52;;;0.40;;
28353;SDS011;15603;50.878;8.036;2023-08-07T08:49:46;0.30;;;0.30;;
28353;SDS011;15603;50.878;8.036;2023-08-07T08:52:14;0.82;;;0.45;;
28353;SDS011;15603;50.878;8.036;2023-08-07T08:54:43;0.95;;;0.43;;
28353;SDS011;15603;50.878;8.036;2023-08-07T08:57:11;4.88;;;0.52;;
28353;SDS011;15603;50.878;8.036;2023-08-07T08:59:39;0.35;;;0.30;;
28353;SDS011;15603;50.878;8.036;2023-08-07T09:02:08;1.05;;;0.40;;
28353;SDS011;15603;50.878;8.036;2023-08-07T09:04:36;1.27;;;0.40;;
28353;SDS011;15603;50.878;8.036;2023-08-07T09:07:03;1.95;;;0.35;;
28353;SDS011;15603;50.878;8.036;2023-08-07T09:09:31;1.02;;;0.50;;
28353;SDS011;15603;50.878;8.036;2023-08-07T09:11:58;2.15;;;0.43;;
28353;SDS011;15603;50.878;8.036;2023-08-07T09:14:28;0.77;;;0.32;;
28353;SDS011;15603;50.878;8.036;2023-08-07T09:16:59;2.97;;;0.30;;
28353;SDS011;15603;50.878;8.036;2023-08-07T09:19:27;0.93;;;0.50;;
28353;SDS011;15603;50.878;8.036;2023-08-07T09:21:55;0.30;;;0.30;;
28353;SDS011;15603;50.878;8.036;2023-08-07T09:24:22;0.95;;;0.43;;
28353;SDS011;15603;50.878;8.036;2023-08-07T09:26:50;1.48;;;0.32;;
28353;SDS011;15603;50.878;8.036;2023-08-07T09:29:20;1.30;;;0.40;;
28353;SDS011;15603;50.878;8.036;2023-08-07T09:31:48;0.55;;;0.30;;
28353;SDS011;15603;50.878;8.036;2023-08-07T09:34:19;2.63;;;0.38;;
28353;SDS011;15603;50.878;8.036;2023-08-07T09:36:47;1.75;;;0.43;;
28353;SDS011;15603;50.878;8.036;2023-08-07T09:39:14;1.20;;;0.30;;
28353;SDS011;15603;50.878;8.036;2023-08-07T09:41:41;0.85;;;0.38;;
28353;SDS011;15603;50.878;8.036;2023-08-07T09:44:09;0.55;;;0.28;;
28353;SDS011;15603;50.878;8.036;2023-08-07T09:46:41;0.55;;;0.20;;
28353;SDS011;15603;50.878;8.036;2023-08-07T09:49:09;1.73;;;0.30;;
28353;SDS011;15603;50.878;8.036;2023-08-07T09:51:43;0.88;;;0.30;;
28353;SDS011;15603;50.878;8.036;2023-08-07T09:54:11;1.40;;;0.40;;
28353;SDS011;15603;50.878;8.036;2023-08-07T09:56:43;0.43;;;0.30;;
28353;SDS011;15603;50.878;8.036;2023-08-07T09:59:10;1.47;;;0.40;;
28353;SDS011;15603;50.878;8.036;2023-08-07T10:01:38;0.55;;;0.35;;
28353;SDS011;15603;50.878;8.036;2023-08-07T10:04:06;0.68;;;0.50;;
28353;SDS011;15603;50.878;8.036;2023-08-07T10:06:34;1.00;;;0.50;;
28353;SDS011;15603;50.878;8.036;2023-08-07T10:09:01;0.40;;;0.30;;
28353;SDS011;15603;50.878;8.036;2023-08-07T10:11:30;3.15;;;0.52;;
28353;SDS011;15603;50.878;8.036;2023-08-07T10:13:58;2.15;;;0.60;;
28353;SDS011;15603;50.878;8.036;2023-08-07T10:16:26;0.82;;;0.50;;
28353;SDS011;15603;50.878;8.036;2023-08-07T10:18:54;0.65;;;0.40;;
28353;SDS011;15603;50.878;8.036;2023-08-07T10:21:23;1.98;;;0.63;;
28353;SDS011;15603;50.878;8.036;2023-08-07T10:23:52;0.73;;;0.50;;
28353;SDS011;15603;50.878;8.036;2023-08-07T10:26:21;2.20;;;0.45;;
28353;SDS011;15603;50.878;8.036;2023-08-07T10:28:49;2.33;;;0.60;;
28353;SDS011;15603;50.878;8.036;2023-08-07T10:31:18;0.93;;;0.50;;
28353;SDS011;15603;50.878;8.036;2023-08-07T10:33:49;1.85;;;0.60;;
28353;SDS011;15603;50.878;8.036;2023-08-07T10:36:16;3.75;;;0.68;;
28353;SDS011;15603;50.878;8.036;2023-08-07T10:38:44;3.67;;;0.77;;
28353;SDS011;15603;50.878;8.036;2023-08-07T10:41:15;1.55;;;0.70;;
28353;SDS011;15603;50.878;8.036;2023-08-07T10:43:45;2.83;;;0.88;;
28353;SDS011;15603;50.878;8.036;2023-08-07T10:46:22;1.85;;;0.80;;
28353;SDS011;15603;50.878;8.036;2023-08-07T10:48:55;2.08;;;0.70;;
28353;SDS011;15603;50.878;8.036;2023-08-07T10:51:29;9.15;;;1.13;;
28353;SDS011;15603;50.878;8.036;2023-08-07T10:54:00;5.93;;;1.50;;
28353;SDS011;15603;50.878;8.036;2023-08-07T10:56:35;7.55;;;1.30;;
28353;SDS011;15603;50.878;8.036;2023-08-07T10:59:08;1.50;;;0.70;;
28353;SDS011;15603;50.878;8.036;2023-08-07T11:04:06;8.25;;;1.60;;
28353;SDS011;15603;50.878;8.036;2023-08-07T11:06:36;9.52;;;1.33;;
28353;SDS011;15603;50.878;8.036;2023-08-07T11:09:05;2.55;;;1.10;;
28353;SDS011;15603;50.878;8.036;2023-08-07T11:11:41;6.28;;;1.33;;
28353;SDS011;15603;50.878;8.036;2023-08-07T11:14:16;6.18;;;1.30;;
28353;SDS011;15603;50.878;8.036;2023-08-07T11:16:44;5.72;;;1.50;;
28353;SDS011;15603;50.878;8.036;2023-08-07T11:19:16;6.22;;;1.48;;
28353;SDS011;15603;50.878;8.036;2023-08-07T11:21:44;6.55;;;0.80;;
28353;SDS011;15603;50.878;8.036;2023-08-07T11:24:12;5.10;;;1.23;;
28353;SDS011;15603;50.878;8.036;2023-08-07T11:26:42;8.27;;;1.38;;
28353;SDS011;15603;50.878;8.036;2023-08-07T11:29:10;4.20;;;1.08;;
28353;SDS011;15603;50.878;8.036;2023-08-07T11:31:37;3.53;;;0.70;;
28353;SDS011;15603;50.878;8.036;2023-08-07T11:34:04;4.55;;;1.00;;
28353;SDS011;15603;50.878;8.036;2023-08-07T11:36:32;3.70;;;1.05;;
28353;SDS011;15603;50.878;8.036;2023-08-07T11:39:06;6.53;;;0.95;;
28353;SDS011;15603;50.878;8.036;2023-08-07T11:41:33;4.38;;;1.10;;
28353;SDS011;15603;50.878;8.036;2023-08-07T11:44:00;2.83;;;1.23;;
28353;SDS011;15603;50.878;8.036;2023-08-07T11:46:27;3.85;;;0.80;;
28353;SDS011;15603;50.878;8.036;2023-08-07T11:48:55;3.63;;;1.17;;
28353;SDS011;15603;50.878;8.036;2023-08-07T11:51:23;11.40;;;2.10;;
28353;SDS011;15603;50.878;8.036;2023-08-07T11:53:50;5.72;;;1.13;;
28353;SDS011;15603;50.878;8.036;2023-08-07T11:58:50;3.15;;;1.17;;
28353;SDS011;15603;50.878;8.036;2023-08-07T12:01:24;6.55;;;1.40;;
28353;SDS011;15603;50.878;8.036;2023-08-07T12:03:54;15.15;;;1.92;;
28353;SDS011;15603;50.878;8.036;2023-08-07T12:06:23;9.07;;;1.40;;
28353;SDS011;15603;50.878;8.036;2023-08-07T12:08:54;5.15;;;1.48;;
28353;SDS011;15603;50.878;8.036;2023-08-07T12:11:23;4.68;;;0.88;;
28353;SDS011;15603;50.878;8.036;2023-08-07T12:13:51;4.25;;;1.00;;
28353;SDS011;15603;50.878;8.036;2023-08-07T12:16:18;5.28;;;1.33;;
28353;SDS011;15603;50.878;8.036;2023-08-07T12:18:46;4.57;;;1.15;;
28353;SDS011;15603;50.878;8.036;2023-08-07T12:21:16;3.35;;;0.93;;
28353;SDS011;15603;50.878;8.036;2023-08-07T12:23:46;5.05;;;1.20;;
28353;SDS011;15603;50.878;8.036;2023-08-07T12:26:16;3.95;;;0.82;;
28353;SDS011;15603;50.878;8.036;2023-08-07T12:28:44;4.07;;;1.23;;
28353;SDS011;15603;50.878;8.036;2023-08-07T12:31:11;7.10;;;1.60;;
28353;SDS011;15603;50.878;8.036;2023-08-07T12:33:38;3.75;;;0.82;;
28353;SDS011;15603;50.878;8.036;2023-08-07T12:36:05;3.63;;;1.00;;
28353;SDS011;15603;50.878;8.036;2023-08-07T12:38:46;4.95;;;1.05;;
28353;SDS011;15603;50.878;8.036;2023-08-07T12:41:14;6.75;;;1.88;;
28353;SDS011;15603;50.878;8.036;2023-08-07T12:43:44;10.43;;;1.20;;
28353;SDS011;15603;50.878;8.036;2023-08-07T12:46:11;5.95;;;1.27;;
28353;SDS011;15603;50.878;8.036;2023-08-07T12:48:41;7.25;;;1.23;;
28353;SDS011;15603;50.878;8.036;2023-08-07T12:51:08;11.68;;;1.20;;
28353;SDS011;15603;50.878;8.036;2023-08-07T12:53:35;3.85;;;1.10;;
28353;SDS011;15603;50.878;8.036;2023-08-07T12:56:02;5.57;;;1.15;;
28353;SDS011;15603;50.878;8.036;2023-08-07T12:58:31;7.45;;;1.15;;
28353;SDS011;15603;50.878;8.036;2023-08-07T13:00:58;4.53;;;1.45;;
28353;SDS011;15603;50.878;8.036;2023-08-07T13:03:26;8.43;;;1.65;;
28353;SDS011;15603;50.878;8.036;2023-08-07T13:05:53;3.38;;;0.93;;
28353;SDS011;15603;50.878;8.036;2023-08-07T13:08:20;7.95;;;1.10;;
28353;SDS011;15603;50.878;8.036;2023-08-07T13:10:47;2.38;;;0.88;;
28353;SDS011;15603;50.878;8.036;2023-08-07T13:13:16;5.78;;;1.05;;
28353;SDS011;15603;50.878;8.036;2023-08-07T13:15:43;5.75;;;1.08;;
28353;SDS011;15603;50.878;8.036;2023-08-07T13:18:10;5.35;;;1.15;;
28353;SDS011;15603;50.878;8.036;2023-08-07T13:20:37;2.35;;;0.90;;
28353;SDS011;15603;50.878;8.036;2023-08-07T13:23:05;6.32;;;1.25;;
28353;SDS011;15603;50.878;8.036;2023-08-07T13:25:33;4.75;;;1.35;;
28353;SDS011;15603;50.878;8.036;2023-08-07T13:28:00;5.20;;;1.13;;
28353;SDS011;15603;50.878;8.036;2023-08-07T13:30:31;7.97;;;1.40;;
28353;SDS011;15603;50.878;8.036;2023-08-07T13:33:03;3.53;;;0.73;;
28353;SDS011;15603;50.878;8.036;2023-08-07T13:35:30;4.53;;;1.33;;
28353;SDS011;15603;50.878;8.036;2023-08-07T13:38:00;3.00;;;1.10;;
28353;SDS011;15603;50.878;8.036;2023-08-07T13:40:27;6.10;;;1.48;;
28353;SDS011;15603;50.878;8.036;2023-08-07T13:42:54;2.75;;;0.88;;
28353;SDS011;15603;50.878;8.036;2023-08-07T13:45:21;5.53;;;0.73;;
28353;SDS011;15603;50.878;8.036;2023-08-07T13:47:48;4.30;;;0.98;;
28353;SDS011;15603;50.878;8.036;2023-08-07T13:50:15;3.33;;;1.67;;
28353;SDS011;15603;50.878;8.036;2023-08-07T13:52:42;4.93;;;1.10;;
28353;SDS011;15603;50.878;8.036;2023-08-07T13:55:09;2.67;;;0.88;;
28353;SDS011;15603;50.878;8.036;2023-08-07T13:57:36;4.93;;;1.30;;
28353;SDS011;15603;50.878;8.036;2023-08-07T14:00:04;4.68;;;0.70;;
28353;SDS011;15603;50.878;8.036;2023-08-07T14:02:31;3.40;;;0.90;;
28353;SDS011;15603;50.878;8.036;2023-08-07T14:05:01;5.55;;;1.00;;
28353;SDS011;15603;50.878;8.036;2023-08-07T14:07:29;7.18;;;0.85;;
28353;SDS011;15603;50.878;8.036;2023-08-07T14:09:56;9.73;;;1.20;;
28353;SDS011;15603;50.878;8.036;2023-08-07T14:12:23;1.90;;;0.95;;
28353;SDS011;15603;50.878;8.036;2023-08-07T14:14:50;4.60;;;1.48;;
28353;SDS011;15603;50.878;8.036;2023-08-07T14:17:17;3.05;;;0.82;;
28353;SDS011;15603;50.878;8.036;2023-08-07T14:19:45;2.58;;;0.88;;
28353;SDS011;15603;50.878;8.036;2023-08-07T14:22:12;3.10;;;0.98;;
28353;SDS011;15603;50.878;8.036;2023-08-07T14:24:39;4.38;;;0.82;;
28353;SDS011;15603;50.878;8.036;2023-08-07T14:27:07;1.88;;;0.70;;
28353;SDS011;15603;50.878;8.036;2023-08-07T14:29:34;2.65;;;0.90;;
28353;SDS011;15603;50.878;8.036;2023-08-07T14:32:01;5.07;;;0.55;;
28353;SDS011;15603;50.878;8.036;2023-08-07T14:34:29;4.40;;;0.88;;
28353;SDS011;15603;50.878;8.036;2023-08-07T14:36:56;1.23;;;0.80;;
28353;SDS011;15603;50.878;8.036;2023-08-07T14:39:23;3.20;;;0.68;;
28353;SDS011;15603;50.878;8.036;2023-08-07T14:41:50;6.32;;;1.00;;
28353;SDS011;15603;50.878;8.036;2023-08-07T14:44:19;1.98;;;0.60;;
28353;SDS011;15603;50.878;8.036;2023-08-07T14:46:46;4.25;;;1.10;;
28353;SDS011;15603;50.878;8.036;2023-08-07T14:49:13;9.32;;;0.90;;
28353;SDS011;15603;50.878;8.036;2023-08-07T14:51:40;0.77;;;0.55;;
28353;SDS011;15603;50.878;8.036;2023-08-07T14:54:07;8.00;;;1.02;;
28353;SDS011;15603;50.878;8.036;2023-08-07T14:56:34;5.47;;;1.23;;
28353;SDS011;15603;50.878;8.036;2023-08-07T14:59:01;4.03;;;0.85;;
28353;SDS011;15603;50.878;8.036;2023-08-07T15:01:29;2.88;;;0.70;;
28353;SDS011;15603;50.878;8.036;2023-08-07T15:03:56;2.20;;;0.82;;
28353;SDS011;15603;50.878;8.036;2023-08-07T15:06:24;5.00;;;1.00;;
28353;SDS011;15603;50.878;8.036;2023-08-07T15:08:51;3.05;;;0.88;;
28353;SDS011;15603;50.878;8.036;2023-08-07T15:11:18;4.47;;;0.80;;
28353;SDS011;15603;50.878;8.036;2023-08-07T15:13:45;3.55;;;0.95;;
28353;SDS011;15603;50.878;8.036;2023-08-07T15:16:12;3.45;;;1.02;;